sensor_id;sensor_type;location;lat;lon;timestamp;P1;durP1;ratioP1;P2;durP2;ratioP2
2049;SDS011;8478;49.208;8.806;2022-10-26T00:02:15;4.97;;;3.20;;
2049;SDS011;8478;49.208;8.806;2022-10-26T00:04:40;4.30;;;3.90;;
2049;SDS011;8478;49.208;8.806;2022-10-26T00:07:06;4.40;;;3.77;;
2049;SDS011;8478;49.208;8.806;2022-10-26T00:09:32;4.03;;;3.63;;
2049;SDS011;8478;49.208;8.806;2022-10-26T00:11:57;4.10;;;3.80;;
2049;SDS011;8478;49.208;8.806;2022-10-26T00:14:23;4.23;;;3.47;;
2049;SDS011;8478;49.208;8.806;2022-10-26T00:16:50;4.83;;;3.70;;
2049;SDS011;8478;49.208;8.806;2022-10-26T00:19:15;3.57;;;3.27;;
2049;SDS011;8478;49.208;8.806;2022-10-26T00:21:41;4.40;;;4.00;;
2049;SDS011;8478;49.208;8.806;2022-10-26T00:24:07;3.20;;;2.93;;
2049;SDS011;8478;49.208;8.806;2022-10-26T00:26:32;3.83;;;3.53;;
2049;SDS011;8478;49.208;8.806;2022-10-26T00:28:58;3.80;;;3.33;;
2049;SDS011;8478;49.208;8.806;2022-10-26T00:31:23;4.43;;;3.27;;
2049;SDS011;8478;49.208;8.806;2022-10-26T00:33:52;4.10;;;3.10;;
2049;SDS011;8478;49.208;8.806;2022-10-26T00:36:19;4.37;;;3.23;;
2049;SDS011;8478;49.208;8.806;2022-10-26T00:38:48;4.53;;;3.50;;
2049;SDS011;8478;49.208;8.806;2022-10-26T00:41:16;3.20;;;3.00;;
2049;SDS011;8478;49.208;8.806;2022-10-26T00:43:43;4.80;;;3.70;;
2049;SDS011;8478;49.208;8.806;2022-10-26T00:46:16;4.30;;;3.40;;
2049;SDS011;8478;49.208;8.806;2022-10-26T00:48:51;3.80;;;3.37;;
2049;SDS011;8478;49.208;8.806;2022-10-26T00:51:24;3.30;;;3.10;;
2049;SDS011;8478;49.208;8.806;2022-10-26T00:53:58;4.40;;;3.40;;
2049;SDS011;8478;49.208;8.806;2022-10-26T00:56:27;4.07;;;3.77;;
2049;SDS011;8478;49.208;8.806;2022-10-26T00:58:53;4.10;;;3.53;;
2049;SDS011;8478;49.208;8.806;2022-10-26T01:01:22;5.27;;;3.40;;
2049;SDS011;8478;49.208;8.806;2022-10-26T01:03:47;3.73;;;2.73;;
2049;SDS011;8478;49.208;8.806;2022-10-26T01:06:13;4.57;;;2.80;;
2049;SDS011;8478;49.208;8.806;2022-10-26T01:08:40;4.23;;;3.27;;
2049;SDS011;8478;49.208;8.806;2022-10-26T01:11:07;5.13;;;3.57;;
2049;SDS011;8478;49.208;8.806;2022-10-26T01:13:33;3.50;;;3.30;;
2049;SDS011;8478;49.208;8.806;2022-10-26T01:24:16;4.43;;;3.17;;
2049;SDS011;8478;49.208;8.806;2022-10-26T01:31:57;3.10;;;2.90;;
2049;SDS011;8478;49.208;8.806;2022-10-26T01:34:39;5.63;;;3.47;;
2049;SDS011;8478;49.208;8.806;2022-10-26T01:37:33;4.00;;;3.60;;
2049;SDS011;8478;49.208;8.806;2022-10-26T01:40:05;3.53;;;3.23;;
2049;SDS011;8478;49.208;8.806;2022-10-26T01:42:50;3.60;;;3.30;;
2049;SDS011;8478;49.208;8.806;2022-10-26T01:45:18;3.87;;;3.20;;
2049;SDS011;8478;49.208;8.806;2022-10-26T01:47:44;3.70;;;3.40;;
2049;SDS011;8478;49.208;8.806;2022-10-26T01:50:12;4.00;;;3.70;;
2049;SDS011;8478;49.208;8.806;2022-10-26T01:52:38;4.13;;;3.40;;
2049;SDS011;8478;49.208;8.806;2022-10-26T01:57:59;4.07;;;3.77;;
2049;SDS011;8478;49.208;8.806;2022-10-26T02:00:34;3.83;;;3.53;;
2049;SDS011;8478;49.208;8.806;2022-10-26T02:08:30;5.13;;;3.43;;
2049;SDS011;8478;49.208;8.806;2022-10-26T02:22:18;5.67;;;3.30;;
2049;SDS011;8478;49.208;8.806;2022-10-26T02:24:50;3.33;;;3.13;;
2049;SDS011;8478;49.208;8.806;2022-10-26T02:27:19;5.97;;;3.67;;
2049;SDS011;8478;49.208;8.806;2022-10-26T02:29:51;3.47;;;2.80;;
2049;SDS011;8478;49.208;8.806;2022-10-26T02:32:20;3.93;;;3.63;;
2049;SDS011;8478;49.208;8.806;2022-10-26T02:34:48;3.97;;;3.30;;
2049;SDS011;8478;49.208;8.806;2022-10-26T02:37:17;3.50;;;3.20;;
2049;SDS011;8478;49.208;8.806;2022-10-26T02:39:47;5.00;;;3.13;;
2049;SDS011;8478;49.208;8.806;2022-10-26T02:42:15;3.93;;;3.10;;
2049;SDS011;8478;49.208;8.806;2022-10-26T02:47:14;4.90;;;3.33;;
2049;SDS011;8478;49.208;8.806;2022-10-26T02:49:41;3.80;;;3.50;;
2049;SDS011;8478;49.208;8.806;2022-10-26T02:57:35;4.00;;;3.47;;
2049;SDS011;8478;49.208;8.806;2022-10-26T03:00:06;4.33;;;3.30;;
2049;SDS011;8478;49.208;8.806;2022-10-26T03:02:33;3.87;;;3.53;;
2049;SDS011;8478;49.208;8.806;2022-10-26T03:05:09;3.53;;;3.23;;
2049;SDS011;8478;49.208;8.806;2022-10-26T03:07:43;3.93;;;3.20;;
2049;SDS011;8478;49.208;8.806;2022-10-26T03:10:09;5.60;;;3.50;;
2049;SDS011;8478;49.208;8.806;2022-10-26T03:12:35;4.87;;;3.80;;
2049;SDS011;8478;49.208;8.806;2022-10-26T03:15:01;3.27;;;2.80;;
2049;SDS011;8478;49.208;8.806;2022-10-26T03:17:27;5.20;;;3.30;;
2049;SDS011;8478;49.208;8.806;2022-10-26T03:19:53;5.80;;;3.33;;
2049;SDS011;8478;49.208;8.806;2022-10-26T03:22:20;4.63;;;3.50;;
2049;SDS011;8478;49.208;8.806;2022-10-26T03:24:46;3.77;;;3.47;;
2049;SDS011;8478;49.208;8.806;2022-10-26T03:27:12;3.47;;;3.17;;
2049;SDS011;8478;49.208;8.806;2022-10-26T03:29:38;4.20;;;3.20;;
2049;SDS011;8478;49.208;8.806;2022-10-26T03:32:03;4.20;;;3.10;;
2049;SDS011;8478;49.208;8.806;2022-10-26T03:34:29;4.67;;;4.17;;
2049;SDS011;8478;49.208;8.806;2022-10-26T03:36:55;3.63;;;3.10;;
2049;SDS011;8478;49.208;8.806;2022-10-26T03:39:21;3.43;;;3.03;;
2049;SDS011;8478;49.208;8.806;2022-10-26T03:41:46;3.57;;;3.27;;
2049;SDS011;8478;49.208;8.806;2022-10-26T03:44:12;5.70;;;4.20;;
2049;SDS011;8478;49.208;8.806;2022-10-26T03:46:38;4.27;;;3.87;;
2049;SDS011;8478;49.208;8.806;2022-10-26T03:49:04;4.10;;;3.70;;
2049;SDS011;8478;49.208;8.806;2022-10-26T03:51:30;5.30;;;4.20;;
2049;SDS011;8478;49.208;8.806;2022-10-26T03:53:55;5.10;;;4.67;;
2049;SDS011;8478;49.208;8.806;2022-10-26T03:56:21;4.73;;;4.33;;
2049;SDS011;8478;49.208;8.806;2022-10-26T03:58:47;4.43;;;4.03;;
2049;SDS011;8478;49.208;8.806;2022-10-26T04:01:12;5.50;;;5.00;;
2049;SDS011;8478;49.208;8.806;2022-10-26T04:03:38;4.20;;;3.90;;
2049;SDS011;8478;49.208;8.806;2022-10-26T04:06:04;5.40;;;4.60;;
2049;SDS011;8478;49.208;8.806;2022-10-26T04:08:30;4.30;;;4.00;;
2049;SDS011;8478;49.208;8.806;2022-10-26T04:10:56;4.40;;;4.00;;
2049;SDS011;8478;49.208;8.806;2022-10-26T04:13:22;4.93;;;4.03;;
2049;SDS011;8478;49.208;8.806;2022-10-26T04:15:48;3.90;;;3.50;;
2049;SDS011;8478;49.208;8.806;2022-10-26T04:18:13;4.47;;;4.17;;
2049;SDS011;8478;49.208;8.806;2022-10-26T04:20:39;4.30;;;4.00;;
2049;SDS011;8478;49.208;8.806;2022-10-26T04:23:15;4.70;;;3.80;;
2049;SDS011;8478;49.208;8.806;2022-10-26T04:25:41;4.10;;;3.60;;
2049;SDS011;8478;49.208;8.806;2022-10-26T04:28:08;4.17;;;3.77;;
2049;SDS011;8478;49.208;8.806;2022-10-26T04:30:35;3.63;;;3.33;;
2049;SDS011;8478;49.208;8.806;2022-10-26T04:33:02;4.23;;;3.60;;
2049;SDS011;8478;49.208;8.806;2022-10-26T04:35:28;3.93;;;3.57;;
2049;SDS011;8478;49.208;8.806;2022-10-26T04:37:58;5.03;;;3.80;;
2049;SDS011;8478;49.208;8.806;2022-10-26T04:40:28;3.60;;;3.30;;
2049;SDS011;8478;49.208;8.806;2022-10-26T04:42:55;4.00;;;3.67;;
2049;SDS011;8478;49.208;8.806;2022-10-26T04:45:20;3.27;;;3.07;;
2049;SDS011;8478;49.208;8.806;2022-10-26T04:47:46;3.83;;;3.50;;
2049;SDS011;8478;49.208;8.806;2022-10-26T04:50:22;4.07;;;3.70;;
2049;SDS011;8478;49.208;8.806;2022-10-26T04:52:49;4.30;;;3.90;;
2049;SDS011;8478;49.208;8.806;2022-10-26T04:55:15;5.90;;;3.43;;
2049;SDS011;8478;49.208;8.806;2022-10-26T04:57:42;3.57;;;3.20;;
2049;SDS011;8478;49.208;8.806;2022-10-26T05:00:09;4.47;;;4.07;;
2049;SDS011;8478;49.208;8.806;2022-10-26T05:02:35;4.67;;;3.50;;
2049;SDS011;8478;49.208;8.806;2022-10-26T05:05:00;4.67;;;3.60;;
2049;SDS011;8478;49.208;8.806;2022-10-26T05:07:26;4.57;;;4.10;;
2049;SDS011;8478;49.208;8.806;2022-10-26T05:09:52;3.73;;;3.40;;
2049;SDS011;8478;49.208;8.806;2022-10-26T05:12:17;4.20;;;3.83;;
2049;SDS011;8478;49.208;8.806;2022-10-26T05:14:43;4.33;;;4.00;;
2049;SDS011;8478;49.208;8.806;2022-10-26T05:17:09;4.40;;;3.50;;
2049;SDS011;8478;49.208;8.806;2022-10-26T05:19:35;4.37;;;4.00;;
2049;SDS011;8478;49.208;8.806;2022-10-26T05:22:00;5.97;;;3.90;;
2049;SDS011;8478;49.208;8.806;2022-10-26T05:24:26;3.80;;;3.40;;
2049;SDS011;8478;49.208;8.806;2022-10-26T05:26:51;4.13;;;3.73;;
2049;SDS011;8478;49.208;8.806;2022-10-26T05:29:17;5.00;;;4.60;;
2049;SDS011;8478;49.208;8.806;2022-10-26T05:31:43;4.40;;;4.00;;
2049;SDS011;8478;49.208;8.806;2022-10-26T05:34:08;6.23;;;3.80;;
2049;SDS011;8478;49.208;8.806;2022-10-26T05:36:34;4.03;;;3.20;;
2049;SDS011;8478;49.208;8.806;2022-10-26T05:38:59;3.73;;;3.43;;
2049;SDS011;8478;49.208;8.806;2022-10-26T05:41:26;3.80;;;3.50;;
2049;SDS011;8478;49.208;8.806;2022-10-26T05:43:52;5.60;;;3.67;;
2049;SDS011;8478;49.208;8.806;2022-10-26T05:46:17;4.30;;;3.90;;
2049;SDS011;8478;49.208;8.806;2022-10-26T05:48:43;4.17;;;3.67;;
2049;SDS011;8478;49.208;8.806;2022-10-26T05:51:08;4.40;;;3.70;;
2049;SDS011;8478;49.208;8.806;2022-10-26T05:53:36;5.33;;;3.60;;
2049;SDS011;8478;49.208;8.806;2022-10-26T05:56:02;3.40;;;3.10;;
2049;SDS011;8478;49.208;8.806;2022-10-26T05:58:37;4.63;;;3.70;;
2049;SDS011;8478;49.208;8.806;2022-10-26T06:01:22;3.20;;;3.00;;
2049;SDS011;8478;49.208;8.806;2022-10-26T06:04:14;4.27;;;3.97;;
2049;SDS011;8478;49.208;8.806;2022-10-26T06:06:46;5.03;;;3.60;;
2049;SDS011;8478;49.208;8.806;2022-10-26T06:09:18;3.17;;;2.90;;
2049;SDS011;8478;49.208;8.806;2022-10-26T06:11:44;4.60;;;3.47;;
2049;SDS011;8478;49.208;8.806;2022-10-26T06:14:10;4.13;;;3.27;;
2049;SDS011;8478;49.208;8.806;2022-10-26T06:25:17;3.97;;;3.37;;
2049;SDS011;8478;49.208;8.806;2022-10-26T06:28:05;3.70;;;3.40;;
2049;SDS011;8478;49.208;8.806;2022-10-26T06:30:42;3.53;;;3.23;;
2049;SDS011;8478;49.208;8.806;2022-10-26T06:33:08;4.40;;;3.50;;
2049;SDS011;8478;49.208;8.806;2022-10-26T06:35:40;4.00;;;3.60;;
2049;SDS011;8478;49.208;8.806;2022-10-26T06:38:22;4.30;;;3.87;;
2049;SDS011;8478;49.208;8.806;2022-10-26T06:40:52;4.07;;;3.67;;
2049;SDS011;8478;49.208;8.806;2022-10-26T06:43:24;3.70;;;3.40;;
2049;SDS011;8478;49.208;8.806;2022-10-26T06:45:53;4.90;;;3.70;;
2049;SDS011;8478;49.208;8.806;2022-10-26T06:48:26;3.90;;;3.50;;
2049;SDS011;8478;49.208;8.806;2022-10-26T06:50:53;5.97;;;4.30;;
2049;SDS011;8478;49.208;8.806;2022-10-26T06:53:32;4.33;;;3.93;;
2049;SDS011;8478;49.208;8.806;2022-10-26T06:56:18;4.17;;;3.83;;
2049;SDS011;8478;49.208;8.806;2022-10-26T06:58:44;4.20;;;3.80;;
2049;SDS011;8478;49.208;8.806;2022-10-26T07:01:12;4.10;;;3.80;;
2049;SDS011;8478;49.208;8.806;2022-10-26T07:03:38;4.10;;;3.73;;
2049;SDS011;8478;49.208;8.806;2022-10-26T07:06:04;4.87;;;4.30;;
2049;SDS011;8478;49.208;8.806;2022-10-26T07:08:30;4.50;;;4.20;;
2049;SDS011;8478;49.208;8.806;2022-10-26T07:10:57;3.73;;;3.43;;
2049;SDS011;8478;49.208;8.806;2022-10-26T07:13:23;4.40;;;3.90;;
2049;SDS011;8478;49.208;8.806;2022-10-26T07:15:48;4.37;;;4.03;;
2049;SDS011;8478;49.208;8.806;2022-10-26T07:18:14;6.30;;;4.63;;
2049;SDS011;8478;49.208;8.806;2022-10-26T07:20:40;4.90;;;4.40;;
2049;SDS011;8478;49.208;8.806;2022-10-26T07:23:06;5.33;;;4.57;;
2049;SDS011;8478;49.208;8.806;2022-10-26T07:25:36;4.77;;;4.37;;
2049;SDS011;8478;49.208;8.806;2022-10-26T07:28:04;4.83;;;4.33;;
2049;SDS011;8478;49.208;8.806;2022-10-26T07:30:30;4.87;;;4.23;;
2049;SDS011;8478;49.208;8.806;2022-10-26T07:33:03;5.07;;;3.97;;
2049;SDS011;8478;49.208;8.806;2022-10-26T07:35:31;4.70;;;4.30;;
2049;SDS011;8478;49.208;8.806;2022-10-26T07:37:58;5.97;;;4.37;;
2049;SDS011;8478;49.208;8.806;2022-10-26T07:40:24;4.40;;;4.00;;
2049;SDS011;8478;49.208;8.806;2022-10-26T07:42:51;4.97;;;3.70;;
2049;SDS011;8478;49.208;8.806;2022-10-26T07:45:17;4.40;;;4.00;;
2049;SDS011;8478;49.208;8.806;2022-10-26T07:47:43;6.50;;;4.73;;
2049;SDS011;8478;49.208;8.806;2022-10-26T07:50:10;4.47;;;4.07;;
2049;SDS011;8478;49.208;8.806;2022-10-26T07:52:36;4.30;;;3.90;;
2049;SDS011;8478;49.208;8.806;2022-10-26T07:55:03;4.27;;;3.90;;
2049;SDS011;8478;49.208;8.806;2022-10-26T07:57:29;7.43;;;4.23;;
2049;SDS011;8478;49.208;8.806;2022-10-26T07:59:55;4.60;;;4.20;;
2049;SDS011;8478;49.208;8.806;2022-10-26T08:02:20;4.00;;;3.63;;
2049;SDS011;8478;49.208;8.806;2022-10-26T08:04:46;4.57;;;3.80;;
2049;SDS011;8478;49.208;8.806;2022-10-26T08:07:11;4.50;;;3.90;;
2049;SDS011;8478;49.208;8.806;2022-10-26T08:09:37;4.67;;;4.30;;
2049;SDS011;8478;49.208;8.806;2022-10-26T08:12:03;5.30;;;4.80;;
2049;SDS011;8478;49.208;8.806;2022-10-26T08:14:28;4.70;;;4.30;;
2049;SDS011;8478;49.208;8.806;2022-10-26T08:16:55;4.67;;;4.27;;
2049;SDS011;8478;49.208;8.806;2022-10-26T08:19:21;5.07;;;4.63;;
2049;SDS011;8478;49.208;8.806;2022-10-26T08:21:47;4.93;;;4.50;;
2049;SDS011;8478;49.208;8.806;2022-10-26T08:24:13;5.63;;;4.90;;
2049;SDS011;8478;49.208;8.806;2022-10-26T08:26:38;5.00;;;4.60;;
2049;SDS011;8478;49.208;8.806;2022-10-26T08:29:04;4.70;;;4.30;;
2049;SDS011;8478;49.208;8.806;2022-10-26T08:31:30;6.93;;;4.90;;
2049;SDS011;8478;49.208;8.806;2022-10-26T08:33:56;5.07;;;4.57;;
2049;SDS011;8478;49.208;8.806;2022-10-26T08:36:22;4.67;;;4.37;;
2049;SDS011;8478;49.208;8.806;2022-10-26T08:38:49;6.83;;;5.07;;
2049;SDS011;8478;49.208;8.806;2022-10-26T08:41:16;5.07;;;4.57;;
2049;SDS011;8478;49.208;8.806;2022-10-26T08:43:46;5.90;;;5.10;;
2049;SDS011;8478;49.208;8.806;2022-10-26T08:46:21;5.30;;;4.80;;
2049;SDS011;8478;49.208;8.806;2022-10-26T08:48:55;5.03;;;4.50;;
2049;SDS011;8478;49.208;8.806;2022-10-26T08:51:34;5.03;;;4.50;;
2049;SDS011;8478;49.208;8.806;2022-10-26T08:54:09;4.63;;;4.23;;
2049;SDS011;8478;49.208;8.806;2022-10-26T08:56:46;4.30;;;4.00;;
2049;SDS011;8478;49.208;8.806;2022-10-26T09:01:50;6.97;;;4.47;;
2049;SDS011;8478;49.208;8.806;2022-10-26T09:04:16;5.20;;;4.67;;
2049;SDS011;8478;49.208;8.806;2022-10-26T09:10:16;4.60;;;4.20;;
2049;SDS011;8478;49.208;8.806;2022-10-26T09:12:53;4.57;;;4.10;;
2049;SDS011;8478;49.208;8.806;2022-10-26T09:15:40;5.87;;;5.07;;
2049;SDS011;8478;49.208;8.806;2022-10-26T09:18:45;4.77;;;4.30;;
2049;SDS011;8478;49.208;8.806;2022-10-26T09:21:21;4.67;;;4.27;;
2049;SDS011;8478;49.208;8.806;2022-10-26T09:23:55;4.93;;;4.13;;
2049;SDS011;8478;49.208;8.806;2022-10-26T09:29:15;5.50;;;4.03;;
2049;SDS011;8478;49.208;8.806;2022-10-26T09:31:41;4.00;;;3.70;;
2049;SDS011;8478;49.208;8.806;2022-10-26T09:34:20;4.33;;;3.93;;
2049;SDS011;8478;49.208;8.806;2022-10-26T09:36:52;5.75;;;3.70;;
2049;SDS011;8478;49.208;8.806;2022-10-26T09:39:29;5.23;;;4.10;;
2049;SDS011;8478;49.208;8.806;2022-10-26T09:44:57;6.40;;;4.70;;
2049;SDS011;8478;49.208;8.806;2022-10-26T09:52:33;5.10;;;3.77;;
2049;SDS011;8478;49.208;8.806;2022-10-26T09:54:59;4.03;;;3.73;;
2049;SDS011;8478;49.208;8.806;2022-10-26T09:57:24;4.50;;;4.20;;
2049;SDS011;8478;49.208;8.806;2022-10-26T09:59:50;4.80;;;3.57;;
2049;SDS011;8478;49.208;8.806;2022-10-26T10:02:32;4.20;;;3.73;;
2049;SDS011;8478;49.208;8.806;2022-10-26T10:04:59;4.40;;;4.00;;
2049;SDS011;8478;49.208;8.806;2022-10-26T10:07:25;6.00;;;3.90;;
2049;SDS011;8478;49.208;8.806;2022-10-26T10:10:07;4.73;;;3.70;;
2049;SDS011;8478;49.208;8.806;2022-10-26T10:12:43;4.57;;;4.03;;
2049;SDS011;8478;49.208;8.806;2022-10-26T10:17:50;4.87;;;4.47;;
2049;SDS011;8478;49.208;8.806;2022-10-26T10:20:25;3.77;;;3.47;;
2049;SDS011;8478;49.208;8.806;2022-10-26T10:22:59;4.40;;;3.80;;
2049;SDS011;8478;49.208;8.806;2022-10-26T10:25:38;4.00;;;3.60;;
2049;SDS011;8478;49.208;8.806;2022-10-26T10:28:20;4.47;;;3.47;;
2049;SDS011;8478;49.208;8.806;2022-10-26T10:30:53;4.00;;;3.70;;
2049;SDS011;8478;49.208;8.806;2022-10-26T10:33:30;4.77;;;3.63;;
2049;SDS011;8478;49.208;8.806;2022-10-26T10:36:00;4.07;;;3.40;;
2049;SDS011;8478;49.208;8.806;2022-10-26T10:38:28;5.40;;;3.30;;
2049;SDS011;8478;49.208;8.806;2022-10-26T10:40:55;3.90;;;3.60;;
2049;SDS011;8478;49.208;8.806;2022-10-26T10:43:22;3.97;;;3.67;;
2049;SDS011;8478;49.208;8.806;2022-10-26T10:45:50;4.40;;;3.97;;
2049;SDS011;8478;49.208;8.806;2022-10-26T10:48:19;5.80;;;4.00;;
2049;SDS011;8478;49.208;8.806;2022-10-26T10:50:56;5.60;;;3.30;;
2049;SDS011;8478;49.208;8.806;2022-10-26T10:56:22;3.63;;;3.33;;
2049;SDS011;8478;49.208;8.806;2022-10-26T10:59:04;3.93;;;3.10;;
2049;SDS011;8478;49.208;8.806;2022-10-26T11:01:40;4.43;;;3.00;;
2049;SDS011;8478;49.208;8.806;2022-10-26T11:06:41;3.50;;;3.20;;
2049;SDS011;8478;49.208;8.806;2022-10-26T11:09:10;4.53;;;4.10;;
2049;SDS011;8478;49.208;8.806;2022-10-26T11:19:40;4.07;;;3.60;;
2049;SDS011;8478;49.208;8.806;2022-10-26T11:22:41;4.03;;;3.63;;
2049;SDS011;8478;49.208;8.806;2022-10-26T11:28:18;4.30;;;3.87;;
2049;SDS011;8478;49.208;8.806;2022-10-26T11:31:05;5.87;;;3.80;;
2049;SDS011;8478;49.208;8.806;2022-10-26T11:36:29;4.00;;;3.50;;
2049;SDS011;8478;49.208;8.806;2022-10-26T11:39:00;4.43;;;4.00;;
2049;SDS011;8478;49.208;8.806;2022-10-26T11:41:55;4.67;;;4.00;;
2049;SDS011;8478;49.208;8.806;2022-10-26T11:44:42;3.90;;;3.50;;
2049;SDS011;8478;49.208;8.806;2022-10-26T11:47:13;4.07;;;3.60;;
2049;SDS011;8478;49.208;8.806;2022-10-26T11:49:50;5.73;;;4.23;;
2049;SDS011;8478;49.208;8.806;2022-10-26T11:52:27;4.50;;;3.73;;
2049;SDS011;8478;49.208;8.806;2022-10-26T11:54:59;7.97;;;3.73;;
2049;SDS011;8478;49.208;8.806;2022-10-26T11:57:28;8.63;;;4.40;;
2049;SDS011;8478;49.208;8.806;2022-10-26T12:00:07;4.50;;;3.90;;
2049;SDS011;8478;49.208;8.806;2022-10-26T12:02:40;7.57;;;3.80;;
2049;SDS011;8478;49.208;8.806;2022-10-26T12:07:49;5.33;;;3.83;;
2049;SDS011;8478;49.208;8.806;2022-10-26T12:10:34;4.03;;;3.17;;
2049;SDS011;8478;49.208;8.806;2022-10-26T12:16:12;4.37;;;3.90;;
2049;SDS011;8478;49.208;8.806;2022-10-26T12:18:49;4.07;;;3.47;;
2049;SDS011;8478;49.208;8.806;2022-10-26T12:21:26;4.10;;;3.20;;
2049;SDS011;8478;49.208;8.806;2022-10-26T12:23:55;3.53;;;3.00;;
2049;SDS011;8478;49.208;8.806;2022-10-26T12:29:21;4.20;;;3.00;;
2049;SDS011;8478;49.208;8.806;2022-10-26T12:31:48;3.87;;;3.47;;
2049;SDS011;8478;49.208;8.806;2022-10-26T12:34:15;4.80;;;3.40;;
2049;SDS011;8478;49.208;8.806;2022-10-26T12:39:27;5.27;;;3.40;;
2049;SDS011;8478;49.208;8.806;2022-10-26T12:42:40;4.33;;;3.47;;
2049;SDS011;8478;49.208;8.806;2022-10-26T13:00:11;4.80;;;4.00;;
2049;SDS011;8478;49.208;8.806;2022-10-26T13:08:18;4.03;;;3.70;;
2049;SDS011;8478;49.208;8.806;2022-10-26T13:11:03;4.73;;;3.50;;
2049;SDS011;8478;49.208;8.806;2022-10-26T13:13:31;4.40;;;3.50;;
2049;SDS011;8478;49.208;8.806;2022-10-26T13:15:59;8.23;;;4.10;;
2049;SDS011;8478;49.208;8.806;2022-10-26T13:18:26;3.83;;;3.23;;
2049;SDS011;8478;49.208;8.806;2022-10-26T13:23:37;4.27;;;3.87;;
2049;SDS011;8478;49.208;8.806;2022-10-26T13:26:30;5.23;;;3.53;;
2049;SDS011;8478;49.208;8.806;2022-10-26T13:29:00;4.67;;;3.90;;
2049;SDS011;8478;49.208;8.806;2022-10-26T13:33:55;3.90;;;3.50;;
2049;SDS011;8478;49.208;8.806;2022-10-26T13:36:35;5.67;;;3.53;;
2049;SDS011;8478;49.208;8.806;2022-10-26T13:39:16;3.73;;;3.33;;
2049;SDS011;8478;49.208;8.806;2022-10-26T13:41:45;4.30;;;3.30;;
2049;SDS011;8478;49.208;8.806;2022-10-26T13:44:15;4.43;;;3.40;;
2049;SDS011;8478;49.208;8.806;2022-10-26T13:47:00;4.40;;;3.40;;
2049;SDS011;8478;49.208;8.806;2022-10-26T13:49:46;4.73;;;3.33;;
2049;SDS011;8478;49.208;8.806;2022-10-26T13:52:18;4.17;;;2.80;;
2049;SDS011;8478;49.208;8.806;2022-10-26T13:54:52;5.90;;;4.13;;
2049;SDS011;8478;49.208;8.806;2022-10-26T13:57:31;3.23;;;2.93;;
2049;SDS011;8478;49.208;8.806;2022-10-26T14:00:21;4.23;;;3.83;;
2049;SDS011;8478;49.208;8.806;2022-10-26T14:02:47;5.57;;;3.73;;
2049;SDS011;8478;49.208;8.806;2022-10-26T14:05:14;5.17;;;3.90;;
2049;SDS011;8478;49.208;8.806;2022-10-26T14:12:55;3.97;;;3.67;;
2049;SDS011;8478;49.208;8.806;2022-10-26T14:15:25;4.03;;;3.63;;
2049;SDS011;8478;49.208;8.806;2022-10-26T14:17:54;3.23;;;2.93;;
2049;SDS011;8478;49.208;8.806;2022-10-26T14:20:22;3.90;;;3.50;;
2049;SDS011;8478;49.208;8.806;2022-10-26T14:22:49;3.40;;;3.10;;
2049;SDS011;8478;49.208;8.806;2022-10-26T14:25:21;3.30;;;3.00;;
2049;SDS011;8478;49.208;8.806;2022-10-26T14:27:50;4.13;;;2.80;;
2049;SDS011;8478;49.208;8.806;2022-10-26T14:30:24;4.30;;;3.60;;
2049;SDS011;8478;49.208;8.806;2022-10-26T14:32:52;4.27;;;3.27;;
2049;SDS011;8478;49.208;8.806;2022-10-26T14:35:19;3.60;;;3.30;;
2049;SDS011;8478;49.208;8.806;2022-10-26T14:37:55;4.90;;;3.10;;
2049;SDS011;8478;49.208;8.806;2022-10-26T14:40:26;4.17;;;3.83;;
2049;SDS011;8478;49.208;8.806;2022-10-26T14:42:55;5.07;;;3.17;;
2049;SDS011;8478;49.208;8.806;2022-10-26T14:48:02;4.93;;;3.47;;
2049;SDS011;8478;49.208;8.806;2022-10-26T14:50:29;2.70;;;2.50;;
2049;SDS011;8478;49.208;8.806;2022-10-26T14:52:59;3.70;;;3.07;;
2049;SDS011;8478;49.208;8.806;2022-10-26T14:55:28;5.33;;;2.87;;
2049;SDS011;8478;49.208;8.806;2022-10-26T14:58:12;3.90;;;3.50;;
2049;SDS011;8478;49.208;8.806;2022-10-26T15:00:43;4.40;;;3.50;;
2049;SDS011;8478;49.208;8.806;2022-10-26T15:03:13;4.37;;;3.30;;
2049;SDS011;8478;49.208;8.806;2022-10-26T15:05:41;4.13;;;3.10;;
2049;SDS011;8478;49.208;8.806;2022-10-26T15:11:11;3.17;;;2.97;;
2049;SDS011;8478;49.208;8.806;2022-10-26T15:13:39;4.03;;;3.20;;
2049;SDS011;8478;49.208;8.806;2022-10-26T15:16:14;4.77;;;3.13;;
2049;SDS011;8478;49.208;8.806;2022-10-26T15:18:42;6.70;;;3.60;;
2049;SDS011;8478;49.208;8.806;2022-10-26T15:21:20;3.00;;;2.80;;
2049;SDS011;8478;49.208;8.806;2022-10-26T15:26:53;4.50;;;2.87;;
2049;SDS011;8478;49.208;8.806;2022-10-26T15:29:35;4.60;;;3.57;;
2049;SDS011;8478;49.208;8.806;2022-10-26T15:32:03;3.40;;;3.10;;
2049;SDS011;8478;49.208;8.806;2022-10-26T15:34:30;4.60;;;2.80;;
2049;SDS011;8478;49.208;8.806;2022-10-26T15:36:56;3.37;;;3.07;;
2049;SDS011;8478;49.208;8.806;2022-10-26T15:39:21;3.30;;;3.00;;
2049;SDS011;8478;49.208;8.806;2022-10-26T15:41:47;5.73;;;2.57;;
2049;SDS011;8478;49.208;8.806;2022-10-26T15:44:15;4.27;;;3.07;;
2049;SDS011;8478;49.208;8.806;2022-10-26T15:46:44;3.33;;;3.13;;
2049;SDS011;8478;49.208;8.806;2022-10-26T15:49:17;3.67;;;2.73;;
2049;SDS011;8478;49.208;8.806;2022-10-26T15:51:44;3.07;;;2.77;;
2049;SDS011;8478;49.208;8.806;2022-10-26T15:54:11;2.93;;;2.73;;
2049;SDS011;8478;49.208;8.806;2022-10-26T15:56:37;3.90;;;3.17;;
2049;SDS011;8478;49.208;8.806;2022-10-26T15:59:14;3.70;;;2.97;;
2049;SDS011;8478;49.208;8.806;2022-10-26T16:01:41;5.30;;;3.03;;
2049;SDS011;8478;49.208;8.806;2022-10-26T16:04:08;4.30;;;3.03;;
2049;SDS011;8478;49.208;8.806;2022-10-26T16:06:35;5.07;;;3.10;;
2049;SDS011;8478;49.208;8.806;2022-10-26T16:09:03;4.13;;;3.23;;
2049;SDS011;8478;49.208;8.806;2022-10-26T16:11:30;3.27;;;2.90;;
2049;SDS011;8478;49.208;8.806;2022-10-26T16:13:57;3.93;;;3.40;;
2049;SDS011;8478;49.208;8.806;2022-10-26T16:16:22;4.10;;;3.70;;
2049;SDS011;8478;49.208;8.806;2022-10-26T16:18:51;5.63;;;3.27;;
2049;SDS011;8478;49.208;8.806;2022-10-26T16:21:18;7.43;;;3.63;;
2049;SDS011;8478;49.208;8.806;2022-10-26T16:23:46;5.00;;;3.50;;
2049;SDS011;8478;49.208;8.806;2022-10-26T16:26:13;3.83;;;3.37;;
2049;SDS011;8478;49.208;8.806;2022-10-26T16:28:39;5.03;;;4.50;;
2049;SDS011;8478;49.208;8.806;2022-10-26T16:31:12;5.97;;;4.17;;
2049;SDS011;8478;49.208;8.806;2022-10-26T16:33:39;3.43;;;3.03;;
2049;SDS011;8478;49.208;8.806;2022-10-26T16:36:05;3.60;;;3.10;;
2049;SDS011;8478;49.208;8.806;2022-10-26T16:38:32;4.10;;;3.63;;
2049;SDS011;8478;49.208;8.806;2022-10-26T16:41:05;5.80;;;3.93;;
2049;SDS011;8478;49.208;8.806;2022-10-26T16:43:41;5.00;;;3.90;;
2049;SDS011;8478;49.208;8.806;2022-10-26T16:46:18;4.70;;;3.90;;
2049;SDS011;8478;49.208;8.806;2022-10-26T16:48:45;4.63;;;3.73;;
2049;SDS011;8478;49.208;8.806;2022-10-26T16:51:14;4.60;;;4.20;;
2049;SDS011;8478;49.208;8.806;2022-10-26T16:53:48;5.20;;;3.93;;
2049;SDS011;8478;49.208;8.806;2022-10-26T16:56:19;6.80;;;3.53;;
2049;SDS011;8478;49.208;8.806;2022-10-26T16:58:46;4.20;;;3.87;;
2049;SDS011;8478;49.208;8.806;2022-10-26T17:01:13;6.00;;;4.67;;
2049;SDS011;8478;49.208;8.806;2022-10-26T17:03:42;4.43;;;4.00;;
2049;SDS011;8478;49.208;8.806;2022-10-26T17:06:11;4.67;;;3.50;;
2049;SDS011;8478;49.208;8.806;2022-10-26T17:08:38;4.53;;;4.10;;
2049;SDS011;8478;49.208;8.806;2022-10-26T17:13:34;7.50;;;4.53;;
2049;SDS011;8478;49.208;8.806;2022-10-26T17:16:01;4.43;;;4.03;;
2049;SDS011;8478;49.208;8.806;2022-10-26T17:18:28;4.37;;;3.97;;
2049;SDS011;8478;49.208;8.806;2022-10-26T17:20:53;5.10;;;4.60;;
2049;SDS011;8478;49.208;8.806;2022-10-26T17:23:19;4.57;;;4.10;;
2049;SDS011;8478;49.208;8.806;2022-10-26T17:25:45;4.50;;;3.77;;
2049;SDS011;8478;49.208;8.806;2022-10-26T17:28:11;4.40;;;4.00;;
2049;SDS011;8478;49.208;8.806;2022-10-26T17:30:37;4.50;;;4.07;;
2049;SDS011;8478;49.208;8.806;2022-10-26T17:33:03;4.73;;;4.30;;
2049;SDS011;8478;49.208;8.806;2022-10-26T17:35:30;4.77;;;3.87;;
2049;SDS011;8478;49.208;8.806;2022-10-26T17:37:57;5.53;;;3.90;;
2049;SDS011;8478;49.208;8.806;2022-10-26T17:40:23;7.03;;;3.60;;
2049;SDS011;8478;49.208;8.806;2022-10-26T17:42:48;4.80;;;4.00;;
2049;SDS011;8478;49.208;8.806;2022-10-26T17:45:14;5.40;;;4.43;;
2049;SDS011;8478;49.208;8.806;2022-10-26T17:47:39;4.80;;;4.10;;
2049;SDS011;8478;49.208;8.806;2022-10-26T17:50:05;4.90;;;3.70;;
2049;SDS011;8478;49.208;8.806;2022-10-26T17:52:32;6.43;;;3.93;;
2049;SDS011;8478;49.208;8.806;2022-10-26T17:54:57;5.80;;;3.53;;